Time;durP1;ratioP1;P1;durP2;ratioP2;P2;SDS_P1;SDS_P2;PMS_P1;PMS_P2;Temp;Humidity;BMP_temperature;BMP_pressure;BME280_temperature;BME280_humidity;BME280_pressure;Samples;Min_cycle;Max_cycle;Signal;HPM_P1;HPM_P2
2023/05/07 00:02:18;;;;;;;19.40;13.20;;;;;;;;;;5042263;28;20474;-54
2023/05/07 00:04:45;;;;;;;20.25;13.52;;;;;;;;;;5060147;28;20031;-55
2023/05/07 00:07:10;;;;;;;16.67;12.10;;;;;;;;;;5042031;28;20039;-58
2023/05/07 00:09:35;;;;;;;19.42;11.90;;;;;;;;;;5060138;28;20462;-58
2023/05/07 00:12:01;;;;;;;15.60;11.65;;;;;;;;;;5060084;28;20051;-54
2023/05/07 00:14:26;;;;;;;21.17;12.55;;;;;;;;;;5060438;28;20445;-57
2023/05/07 00:16:51;;;;;;;17.35;12.27;;;;;;;;;;5059768;28;20463;-53
2023/05/07 00:19:17;;;;;;;22.35;12.35;;;;;;;;;;5060326;28;20508;-58
2023/05/07 00:21:42;;;;;;;16.20;10.80;;;;;;;;;;5060002;28;20067;-58
2023/05/07 00:24:07;;;;;;;16.30;12.00;;;;;;;;;;5060335;28;20650;-58
2023/05/07 00:26:33;;;;;;;20.13;11.52;;;;;;;;;;5060105;28;20288;-58
2023/05/07 00:28:58;;;;;;;16.98;12.73;;;;;;;;;;5061719;28;20056;-57
2023/05/07 00:31:23;;;;;;;16.13;11.03;;;;;;;;;;5042785;28;20028;-57
2023/05/07 00:33:48;;;;;;;15.63;12.35;;;;;;;;;;5060107;28;20740;-58
2023/05/07 00:36:14;;;;;;;14.57;10.98;;;;;;;;;;5059961;28;20028;-54
2023/05/07 00:38:39;;;;;;;17.80;11.98;;;;;;;;;;5060073;28;20032;-58
2023/05/07 00:41:05;;;;;;;15.70;11.70;;;;;;;;;;5060341;28;20439;-58
2023/05/07 00:43:30;;;;;;;16.23;11.35;;;;;;;;;;5060009;28;20021;-57
2023/05/07 00:45:55;;;;;;;16.23;11.05;;;;;;;;;;5061676;28;20521;-55
2023/05/07 00:48:21;;;;;;;18.42;11.88;;;;;;;;;;5063932;28;20033;-58
2023/05/07 00:50:47;;;;;;;16.95;11.18;;;;;;;;;;5064033;28;20052;-56
2023/05/07 00:53:13;;;;;;;20.67;10.95;;;;;;;;;;5064140;28;20048;-57
2023/05/07 00:55:38;;;;;;;14.80;11.73;;;;;;;;;;5064339;28;20078;-59
2023/05/07 00:58:03;;;;;;;13.13;9.77;;;;;;;;;;5064250;28;20025;-59
2023/05/07 01:00:29;;;;;;;15.00;10.38;;;;;;;;;;5045467;28;20020;-55
2023/05/07 01:02:54;;;;;;;19.45;10.68;;;;;;;;;;5063829;28;20020;-60
2023/05/07 01:05:20;;;;;;;12.95;9.63;;;;;;;;;;5063532;28;20032;-58
2023/05/07 01:07:45;;;;;;;14.00;10.27;;;;;;;;;;5063830;28;20056;-58
2023/05/07 01:10:11;;;;;;;14.82;10.85;;;;;;;;;;5063611;28;20013;-56
2023/05/07 01:12:37;;;;;;;14.90;10.90;;;;;;;;;;5063904;28;20021;-59
2023/05/07 01:15:03;;;;;;;14.60;10.65;;;;;;;;;;5063298;28;20031;-56
2023/05/07 01:17:28;;;;;;;16.13;10.48;;;;;;;;;;5063446;28;20056;-58
2023/05/07 01:19:54;;;;;;;14.32;10.63;;;;;;;;;;5063398;28;20060;-58
2023/05/07 01:22:32;;;;;;;16.88;11.80;;;;;;;;;;5064737;28;20096;-56
2023/05/07 01:24:59;;;;;;;15.80;11.57;;;;;;;;;;5063600;28;20052;-58
2023/05/07 01:27:24;;;;;;;16.55;11.05;;;;;;;;;;5063563;28;20283;-59
2023/05/07 01:29:50;;;;;;;14.18;11.35;;;;;;;;;;5063159;28;20268;-56
2023/05/07 01:32:18;;;;;;;18.13;12.57;;;;;;;;;;5063487;28;20037;-56
2023/05/07 01:34:44;;;;;;;18.75;11.95;;;;;;;;;;5063021;28;20039;-57
2023/05/07 01:37:10;;;;;;;18.25;12.02;;;;;;;;;;5045286;28;20051;-55
2023/05/07 01:39:36;;;;;;;20.65;11.95;;;;;;;;;;5062955;28;20079;-59
2023/05/07 01:42:01;;;;;;;18.23;11.20;;;;;;;;;;5063186;28;20089;-56
2023/05/07 01:44:27;;;;;;;14.77;11.93;;;;;;;;;;5026626;28;20541;-59
2023/05/07 01:46:53;;;;;;;17.92;11.15;;;;;;;;;;5062864;28;20101;-58
2023/05/07 01:49:18;;;;;;;15.63;11.30;;;;;;;;;;5045114;28;20032;-58
2023/05/07 01:51:44;;;;;;;15.85;11.98;;;;;;;;;;5009948;28;20090;-59
2023/05/07 01:54:09;;;;;;;15.10;10.52;;;;;;;;;;5063038;28;20077;-59
2023/05/07 01:56:35;;;;;;;15.07;11.40;;;;;;;;;;5062246;28;20055;-58
2023/05/07 01:59:00;;;;;;;18.83;12.25;;;;;;;;;;5062874;28;20142;-56
2023/05/07 02:01:25;;;;;;;14.38;11.25;;;;;;;;;;5062561;28;20081;-55
2023/05/07 02:03:51;;;;;;;17.52;12.20;;;;;;;;;;5026625;28;20040;-58
2023/05/07 02:06:16;;;;;;;16.30;12.20;;;;;;;;;;5062405;28;20103;-59
2023/05/07 02:08:41;;;;;;;19.35;11.45;;;;;;;;;;5062437;28;20453;-57
2023/05/07 02:11:06;;;;;;;23.35;12.82;;;;;;;;;;5062693;28;20028;-59
2023/05/07 02:13:32;;;;;;;17.95;12.65;;;;;;;;;;5009632;28;20031;-56
2023/05/07 02:15:58;;;;;;;19.65;12.73;;;;;;;;;;5009828;28;20517;-58
2023/05/07 02:18:23;;;;;;;17.23;12.90;;;;;;;;;;5061817;28;20125;-58
2023/05/07 02:20:48;;;;;;;20.25;12.70;;;;;;;;;;5062664;28;20689;-55
2023/05/07 02:23:13;;;;;;;20.00;14.10;;;;;;;;;;5061687;28;20259;-58
2023/05/07 02:25:39;;;;;;;22.90;13.07;;;;;;;;;;5062647;28;20293;-57
2023/05/07 02:28:04;;;;;;;18.52;12.15;;;;;;;;;;5061907;28;20059;-56
2023/05/07 02:30:29;;;;;;;19.20;11.63;;;;;;;;;;5062171;28;20012;-54
2023/05/07 02:32:55;;;;;;;18.90;12.20;;;;;;;;;;5061888;28;20703;-58
2023/05/07 02:35:20;;;;;;;21.85;12.40;;;;;;;;;;5061564;28;20031;-59
2023/05/07 02:37:45;;;;;;;17.60;12.48;;;;;;;;;;5061839;28;20378;-58
2023/05/07 02:40:11;;;;;;;19.00;12.18;;;;;;;;;;5061801;28;20025;-54
2023/05/07 02:42:36;;;;;;;16.58;10.77;;;;;;;;;;5061831;28;20550;-58
2023/05/07 02:45:02;;;;;;;19.50;12.40;;;;;;;;;;5061365;28;20489;-57
2023/05/07 02:47:28;;;;;;;16.30;11.88;;;;;;;;;;5061506;28;20048;-56
2023/05/07 02:49:54;;;;;;;16.60;12.95;;;;;;;;;;5061359;28;20078;-56
2023/05/07 02:52:19;;;;;;;16.67;11.75;;;;;;;;;;5061494;28;20044;-58
2023/05/07 02:54:44;;;;;;;18.33;12.18;;;;;;;;;;5061126;28;20504;-58
2023/05/07 02:57:10;;;;;;;16.25;12.70;;;;;;;;;;5061492;28;20348;-57
2023/05/07 02:59:35;;;;;;;19.92;12.55;;;;;;;;;;5061021;28;20024;-59
2023/05/07 03:02:00;;;;;;;15.45;11.77;;;;;;;;;;5061286;28;20108;-55
2023/05/07 03:04:26;;;;;;;16.17;12.00;;;;;;;;;;5061260;28;20021;-58
2023/05/07 03:06:51;;;;;;;18.48;13.30;;;;;;;;;;5061086;28;20260;-57
2023/05/07 03:09:16;;;;;;;15.68;11.90;;;;;;;;;;5060318;28;20063;-59
2023/05/07 03:11:41;;;;;;;17.75;13.43;;;;;;;;;;5061255;28;20430;-59
2023/05/07 03:14:07;;;;;;;17.48;12.55;;;;;;;;;;5061250;28;20384;-58
2023/05/07 03:16:32;;;;;;;15.27;11.43;;;;;;;;;;5042935;28;20053;-57
2023/05/07 03:18:57;;;;;;;17.00;12.88;;;;;;;;;;5061144;28;20020;-56
2023/05/07 03:21:23;;;;;;;16.65;11.63;;;;;;;;;;4991323;28;20386;-55
2023/05/07 03:23:48;;;;;;;19.83;12.05;;;;;;;;;;5061302;28;20088;-58
2023/05/07 03:26:13;;;;;;;17.75;12.35;;;;;;;;;;5060779;28;20479;-58
2023/05/07 03:28:38;;;;;;;20.63;12.18;;;;;;;;;;5061123;28;20029;-58
2023/05/07 03:31:04;;;;;;;19.42;10.93;;;;;;;;;;4991351;28;20434;-58
2023/05/07 03:33:30;;;;;;;27.65;13.43;;;;;;;;;;5042671;28;20038;-55
2023/05/07 03:35:55;;;;;;;18.23;11.60;;;;;;;;;;5060407;28;20020;-56
2023/05/07 03:38:20;;;;;;;15.82;11.70;;;;;;;;;;5060564;28;20127;-57
2023/05/07 03:40:45;;;;;;;18.27;11.88;;;;;;;;;;5060596;28;20078;-58
2023/05/07 03:43:11;;;;;;;15.23;11.40;;;;;;;;;;5060479;28;20178;-57
2023/05/07 03:45:36;;;;;;;14.93;11.55;;;;;;;;;;5060703;28;20054;-58
2023/05/07 03:48:01;;;;;;;17.10;11.65;;;;;;;;;;5060501;28;20343;-59
2023/05/07 03:50:27;;;;;;;15.57;11.50;;;;;;;;;;5060657;28;20027;-57
2023/05/07 03:52:52;;;;;;;22.58;11.30;;;;;;;;;;5060309;28;20084;-55
2023/05/07 03:55:17;;;;;;;17.25;11.80;;;;;;;;;;5060332;28;20023;-55
2023/05/07 03:57:43;;;;;;;15.15;10.93;;;;;;;;;;5060214;28;20102;-56
2023/05/07 04:00:08;;;;;;;15.90;11.18;;;;;;;;;;5060370;28;20444;-58
2023/05/07 04:02:34;;;;;;;15.23;11.82;;;;;;;;;;5060253;28;20024;-58
2023/05/07 04:04:59;;;;;;;20.05;11.50;;;;;;;;;;5060127;28;20012;-59
2023/05/07 04:07:24;;;;;;;17.15;11.05;;;;;;;;;;5060210;28;20025;-58
2023/05/07 04:09:49;;;;;;;19.90;11.20;;;;;;;;;;5060091;28;20027;-58
2023/05/07 04:12:15;;;;;;;15.05;11.57;;;;;;;;;;5007896;28;20089;-55
2023/05/07 04:14:40;;;;;;;14.82;11.23;;;;;;;;;;5059632;28;20050;-58
2023/05/07 04:17:06;;;;;;;14.80;10.90;;;;;;;;;;5042223;28;20454;-56
2023/05/07 04:19:33;;;;;;;15.45;11.13;;;;;;;;;;5059516;28;20036;-55
2023/05/07 04:21:58;;;;;;;14.90;11.15;;;;;;;;;;5060310;28;20028;-59
2023/05/07 04:24:23;;;;;;;14.77;10.67;;;;;;;;;;5059930;28;20016;-58
2023/05/07 04:26:48;;;;;;;16.83;10.35;;;;;;;;;;5042145;28;20492;-59
2023/05/07 04:29:14;;;;;;;14.20;10.85;;;;;;;;;;5059961;28;20085;-58
2023/05/07 04:31:39;;;;;;;14.90;10.52;;;;;;;;;;5060118;28;20012;-58
2023/05/07 04:34:05;;;;;;;12.15;9.07;;;;;;;;;;5059877;28;20417;-57
2023/05/07 04:36:30;;;;;;;12.15;9.68;;;;;;;;;;5041278;28;20401;-57
2023/05/07 04:38:55;;;;;;;15.43;10.80;;;;;;;;;;5059991;28;20024;-56
2023/05/07 04:41:21;;;;;;;15.43;11.55;;;;;;;;;;5059841;28;20085;-56
2023/05/07 04:43:46;;;;;;;15.75;11.38;;;;;;;;;;5060218;28;20462;-58
2023/05/07 04:46:11;;;;;;;14.15;10.52;;;;;;;;;;5059498;28;20057;-58
2023/05/07 04:48:37;;;;;;;19.52;12.05;;;;;;;;;;5060217;28;20107;-59
2023/05/07 04:51:02;;;;;;;13.73;9.98;;;;;;;;;;5059984;28;20309;-60
2023/05/07 04:53:27;;;;;;;16.00;11.52;;;;;;;;;;5059899;28;20025;-59
2023/05/07 04:55:59;;;;;;;13.98;10.20;;;;;;;;;;5059906;28;20020;-58
2023/05/07 04:58:24;;;;;;;14.85;10.55;;;;;;;;;;5059488;28;20332;-57
2023/05/07 05:00:50;;;;;;;16.60;10.20;;;;;;;;;;5059808;28;20327;-58
2023/05/07 05:03:15;;;;;;;16.50;11.27;;;;;;;;;;5059643;28;20017;-56
2023/05/07 05:05:40;;;;;;;16.75;10.18;;;;;;;;;;5059742;28;20546;-58
2023/05/07 05:08:06;;;;;;;15.90;10.25;;;;;;;;;;5059856;28;20098;-58
2023/05/07 05:10:31;;;;;;;12.32;9.40;;;;;;;;;;5059724;28;20050;-59
2023/05/07 05:12:56;;;;;;;11.98;7.75;;;;;;;;;;5059613;28;20096;-57
2023/05/07 05:15:22;;;;;;;9.40;7.93;;;;;;;;;;5041537;28;20024;-60
2023/05/07 05:17:47;;;;;;;11.02;8.02;;;;;;;;;;5059739;28;20054;-56
2023/05/07 05:20:12;;;;;;;10.82;8.07;;;;;;;;;;5059326;28;20029;-53
2023/05/07 05:22:38;;;;;;;12.55;7.78;;;;;;;;;;5059777;28;20031;-59
2023/05/07 05:25:03;;;;;;;10.18;8.02;;;;;;;;;;5059271;28;20020;-54
2023/05/07 05:27:29;;;;;;;9.10;6.68;;;;;;;;;;5059810;28;20359;-57
2023/05/07 05:29:54;;;;;;;9.95;7.32;;;;;;;;;;5059360;28;20027;-56
2023/05/07 05:32:20;;;;;;;9.15;7.45;;;;;;;;;;5061729;28;20024;-59
2023/05/07 05:34:45;;;;;;;12.00;7.68;;;;;;;;;;5062601;28;20016;-56
2023/05/07 05:37:10;;;;;;;8.10;6.70;;;;;;;;;;5063027;28;20466;-59
2023/05/07 05:39:36;;;;;;;8.85;7.63;;;;;;;;;;5062843;28;20516;-56
2023/05/07 05:42:01;;;;;;;11.07;7.20;;;;;;;;;;5063471;28;20058;-59
2023/05/07 05:44:27;;;;;;;9.55;7.43;;;;;;;;;;5063284;28;20048;-59
2023/05/07 05:46:54;;;;;;;10.55;7.15;;;;;;;;;;5062696;28;20198;-59
2023/05/07 05:49:20;;;;;;;10.38;7.55;;;;;;;;;;5045447;28;20033;-58
2023/05/07 05:51:45;;;;;;;12.07;7.78;;;;;;;;;;5062796;28;20025;-60
2023/05/07 05:54:11;;;;;;;13.30;7.88;;;;;;;;;;5063015;28;20016;-57
2023/05/07 05:56:36;;;;;;;9.68;7.60;;;;;;;;;;5062434;28;20017;-58
2023/05/07 05:59:02;;;;;;;12.10;7.68;;;;;;;;;;5062790;28;20492;-58
2023/05/07 06:01:27;;;;;;;11.23;6.22;;;;;;;;;;5062564;28;20020;-55
2023/05/07 06:03:52;;;;;;;16.08;7.07;;;;;;;;;;5062439;28;20055;-58
2023/05/07 06:06:17;;;;;;;9.20;6.47;;;;;;;;;;5062719;28;20104;-55
2023/05/07 06:08:43;;;;;;;8.50;5.97;;;;;;;;;;5062721;28;20241;-56
2023/05/07 06:11:08;;;;;;;12.52;6.50;;;;;;;;;;5062794;28;20237;-58
2023/05/07 06:13:33;;;;;;;8.65;6.32;;;;;;;;;;5062292;28;20028;-57
2023/05/07 06:15:59;;;;;;;12.18;5.90;;;;;;;;;;5062944;28;20031;-58
2023/05/07 06:18:24;;;;;;;9.70;6.20;;;;;;;;;;5009483;28;20132;-58
2023/05/07 06:20:50;;;;;;;12.30;6.47;;;;;;;;;;5044751;28;20814;-57
2023/05/07 06:23:15;;;;;;;9.77;5.78;;;;;;;;;;5062166;28;20104;-59
2023/05/07 06:25:40;;;;;;;9.50;6.15;;;;;;;;;;5062588;28;20426;-56
2023/05/07 06:28:06;;;;;;;11.57;6.10;;;;;;;;;;5062467;28;20436;-58
2023/05/07 06:30:31;;;;;;;9.80;6.60;;;;;;;;;;5062219;28;20245;-58
2023/05/07 06:32:56;;;;;;;12.00;6.60;;;;;;;;;;5061995;28;20277;-58
2023/05/07 06:35:21;;;;;;;10.30;6.13;;;;;;;;;;5062013;28;20259;-57
2023/05/07 06:37:47;;;;;;;8.20;5.53;;;;;;;;;;5062430;28;20265;-57
2023/05/07 06:40:12;;;;;;;13.63;5.97;;;;;;;;;;5061867;28;20352;-56
2023/05/07 06:42:37;;;;;;;8.70;5.70;;;;;;;;;;5062132;28;20603;-59
2023/05/07 06:45:03;;;;;;;11.55;6.40;;;;;;;;;;5061646;28;20029;-58
2023/05/07 06:47:28;;;;;;;11.32;5.65;;;;;;;;;;5062096;28;20040;-59
2023/05/07 06:49:54;;;;;;;8.67;5.37;;;;;;;;;;5061466;28;20025;-56
2023/05/07 06:52:19;;;;;;;13.73;5.45;;;;;;;;;;5062337;28;20249;-57
2023/05/07 06:54:45;;;;;;;10.63;5.43;;;;;;;;;;5061248;28;20028;-59
2023/05/07 06:57:10;;;;;;;9.85;5.82;;;;;;;;;;5061695;28;20256;-57
2023/05/07 06:59:35;;;;;;;7.05;5.53;;;;;;;;;;5061277;28;20033;-58
2023/05/07 07:02:00;;;;;;;10.48;5.15;;;;;;;;;;5061666;28;20047;-58
2023/05/07 07:04:26;;;;;;;9.05;5.55;;;;;;;;;;5061465;28;20056;-57
2023/05/07 07:06:52;;;;;;;8.40;5.38;;;;;;;;;;5061489;28;20063;-57
2023/05/07 07:09:17;;;;;;;6.63;5.30;;;;;;;;;;5061726;28;20077;-59
2023/05/07 07:11:42;;;;;;;7.90;5.33;;;;;;;;;;5061248;28;20025;-57
2023/05/07 07:14:08;;;;;;;8.13;5.50;;;;;;;;;;5061773;28;20237;-59
2023/05/07 07:16:33;;;;;;;8.85;6.43;;;;;;;;;;5061124;28;20059;-55
2023/05/07 07:18:58;;;;;;;9.03;5.57;;;;;;;;;;5061558;28;20550;-59
2023/05/07 07:21:23;;;;;;;7.37;5.47;;;;;;;;;;5060988;28;20257;-60
2023/05/07 07:23:49;;;;;;;17.65;5.93;;;;;;;;;;5043378;28;20723;-58
2023/05/07 07:26:14;;;;;;;10.90;5.33;;;;;;;;;;5061032;28;20028;-59
2023/05/07 07:28:43;;;;;;;6.15;4.90;;;;;;;;;;5061241;28;20252;-56
2023/05/07 07:31:08;;;;;;;14.85;5.90;;;;;;;;;;5061084;28;20032;-57
2023/05/07 07:33:34;;;;;;;8.53;5.63;;;;;;;;;;5060603;28;20016;-58
2023/05/07 07:35:59;;;;;;;7.80;5.82;;;;;;;;;;5060675;28;20374;-57
2023/05/07 07:38:24;;;;;;;8.50;5.78;;;;;;;;;;5060384;28;20028;-58
2023/05/07 07:40:50;;;;;;;9.27;5.60;;;;;;;;;;5043220;28;20021;-59
2023/05/07 07:43:15;;;;;;;10.35;6.38;;;;;;;;;;5060387;28;20587;-58
2023/05/07 07:45:40;;;;;;;15.50;6.60;;;;;;;;;;5061057;28;20466;-59
2023/05/07 07:48:05;;;;;;;15.20;6.13;;;;;;;;;;5060557;28;20016;-58
2023/05/07 07:50:31;;;;;;;9.33;6.03;;;;;;;;;;5060983;28;20017;-57
2023/05/07 07:52:57;;;;;;;8.20;6.18;;;;;;;;;;5060347;28;20293;-58
2023/05/07 07:55:22;;;;;;;10.40;5.90;;;;;;;;;;5059811;28;20016;-58
2023/05/07 07:57:48;;;;;;;12.75;6.53;;;;;;;;;;5060742;28;20780;-57
2023/05/07 08:00:14;;;;;;;7.88;6.07;;;;;;;;;;5060161;28;20029;-56
2023/05/07 08:02:39;;;;;;;9.80;5.50;;;;;;;;;;5060751;28;20123;-58
2023/05/07 08:05:05;;;;;;;7.27;5.73;;;;;;;;;;5060041;28;20480;-55
2023/05/07 08:07:30;;;;;;;10.90;6.50;;;;;;;;;;5060427;28;20238;-57
2023/05/07 08:09:55;;;;;;;17.45;6.10;;;;;;;;;;5059668;28;20012;-59
2023/05/07 08:12:21;;;;;;;9.63;6.10;;;;;;;;;;5060578;28;20020;-59
2023/05/07 08:14:46;;;;;;;8.43;5.32;;;;;;;;;;5060150;28;20633;-56
2023/05/07 08:17:11;;;;;;;8.82;5.50;;;;;;;;;;5060057;28;20027;-57
2023/05/07 08:19:37;;;;;;;12.05;5.53;;;;;;;;;;5060057;28;20028;-59
2023/05/07 08:22:02;;;;;;;10.27;6.20;;;;;;;;;;5007557;28;20102;-57
2023/05/07 08:24:28;;;;;;;7.50;5.97;;;;;;;;;;5060065;28;20036;-59
2023/05/07 08:26:53;;;;;;;11.70;6.23;;;;;;;;;;5059809;28;20032;-58
2023/05/07 08:29:18;;;;;;;8.15;5.57;;;;;;;;;;5060263;28;20245;-58
2023/05/07 08:31:44;;;;;;;23.20;6.17;;;;;;;;;;5059778;28;20021;-57
2023/05/07 08:34:09;;;;;;;10.68;6.78;;;;;;;;;;5060119;28;20296;-58
2023/05/07 08:36:34;;;;;;;10.33;6.10;;;;;;;;;;5059659;28;20024;-58
2023/05/07 08:39:00;;;;;;;14.02;6.15;;;;;;;;;;5060324;28;20735;-56
2023/05/07 08:41:26;;;;;;;9.52;5.65;;;;;;;;;;5041527;28;20021;-58
2023/05/07 08:43:51;;;;;;;10.10;5.75;;;;;;;;;;5060169;28;20059;-58
2023/05/07 08:46:17;;;;;;;10.05;6.55;;;;;;;;;;5060038;28;20086;-57
2023/05/07 08:48:42;;;;;;;10.38;7.20;;;;;;;;;;5059864;28;20028;-59
2023/05/07 08:51:08;;;;;;;9.00;6.75;;;;;;;;;;5060142;28;20020;-57
2023/05/07 08:53:35;;;;;;;9.20;6.85;;;;;;;;;;5059620;28;20122;-59
2023/05/07 08:56:00;;;;;;;8.07;6.40;;;;;;;;;;5060409;28;20040;-58
2023/05/07 08:58:26;;;;;;;7.32;6.20;;;;;;;;;;5059898;28;20051;-57
2023/05/07 09:00:52;;;;;;;8.60;6.60;;;;;;;;;;5059998;28;20021;-58
2023/05/07 09:03:17;;;;;;;12.45;7.63;;;;;;;;;;5059639;28;20261;-58
2023/05/07 09:05:43;;;;;;;13.07;7.70;;;;;;;;;;5059829;28;20081;-57
2023/05/07 09:08:09;;;;;;;9.60;8.00;;;;;;;;;;5039911;28;20144;-57
2023/05/07 09:10:34;;;;;;;11.63;8.20;;;;;;;;;;5040727;28;20075;-59
2023/05/07 09:13:00;;;;;;;11.27;8.07;;;;;;;;;;5040891;28;20148;-58
2023/05/07 09:15:26;;;;;;;12.90;8.50;;;;;;;;;;5023755;28;20375;-57
2023/05/07 09:17:51;;;;;;;12.40;8.48;;;;;;;;;;5040836;28;20037;-58
2023/05/07 09:20:16;;;;;;;12.20;8.77;;;;;;;;;;5040455;28;20115;-59
2023/05/07 09:22:42;;;;;;;13.07;8.83;;;;;;;;;;5040693;28;20695;-58
2023/05/07 09:25:08;;;;;;;11.43;9.43;;;;;;;;;;5039955;28;20238;-58
2023/05/07 09:27:34;;;;;;;12.70;9.40;;;;;;;;;;5040476;28;20041;-56
2023/05/07 09:30:02;;;;;;;13.20;9.48;;;;;;;;;;5040240;28;20044;-59
2023/05/07 09:32:27;;;;;;;15.30;9.23;;;;;;;;;;5040368;28;20097;-59
2023/05/07 09:34:53;;;;;;;13.27;9.88;;;;;;;;;;5040097;28;20104;-58
2023/05/07 09:37:18;;;;;;;12.63;9.43;;;;;;;;;;5039913;28;20035;-60
2023/05/07 09:39:44;;;;;;;11.50;9.38;;;;;;;;;;5039689;28;20363;-57
2023/05/07 09:42:11;;;;;;;15.77;10.55;;;;;;;;;;5063246;28;20021;-56
2023/05/07 09:44:36;;;;;;;10.27;8.48;;;;;;;;;;5063524;28;20089;-58
2023/05/07 09:47:04;;;;;;;17.75;10.40;;;;;;;;;;5062666;28;20132;-59
2023/05/07 09:49:30;;;;;;;13.07;8.90;;;;;;;;;;5063208;28;20035;-57
2023/05/07 09:51:56;;;;;;;13.02;9.00;;;;;;;;;;5063116;28;20040;-56
2023/05/07 09:54:21;;;;;;;11.50;8.02;;;;;;;;;;5062615;28;20024;-56
2023/05/07 09:56:51;;;;;;;10.23;7.68;;;;;;;;;;5062976;28;20032;-55
2023/05/07 09:59:16;;;;;;;14.65;8.07;;;;;;;;;;5062496;28;20078;-56
2023/05/07 10:01:42;;;;;;;10.18;7.97;;;;;;;;;;5063117;28;20025;-58
2023/05/07 10:04:08;;;;;;;11.30;7.53;;;;;;;;;;5062849;28;20027;-58
2023/05/07 10:06:34;;;;;;;10.88;8.45;;;;;;;;;;5062541;28;20024;-59
2023/05/07 10:09:00;;;;;;;13.00;8.60;;;;;;;;;;5063075;28;20093;-58
2023/05/07 10:11:25;;;;;;;9.93;7.95;;;;;;;;;;5062226;28;20040;-57
2023/05/07 10:13:52;;;;;;;13.13;8.07;;;;;;;;;;5062653;28;20025;-59
2023/05/07 10:16:17;;;;;;;12.32;8.48;;;;;;;;;;5062576;28;20078;-57
2023/05/07 10:18:43;;;;;;;11.77;8.65;;;;;;;;;;5061833;28;20024;-56
2023/05/07 10:21:11;;;;;;;12.35;7.95;;;;;;;;;;5062014;28;20111;-52
2023/05/07 10:23:37;;;;;;;14.50;8.30;;;;;;;;;;5062610;28;20027;-55
2023/05/07 10:26:03;;;;;;;10.85;8.73;;;;;;;;;;5062236;28;20020;-57
2023/05/07 10:28:31;;;;;;;8.70;7.30;;;;;;;;;;5061926;28;20565;-58
2023/05/07 10:31:15;;;;;;;12.55;8.80;;;;;;;;;;5062521;28;20469;-58
2023/05/07 10:33:42;;;;;;;12.07;8.02;;;;;;;;;;5063658;28;20024;-58
2023/05/07 10:36:07;;;;;;;10.57;9.20;;;;;;;;;;5062106;28;20383;-59
2023/05/07 10:38:33;;;;;;;12.88;8.85;;;;;;;;;;5062113;28;20028;-59
2023/05/07 10:40:58;;;;;;;10.23;7.80;;;;;;;;;;5062184;28;20037;-59
2023/05/07 10:43:24;;;;;;;8.13;7.32;;;;;;;;;;5062022;28;20099;-58
2023/05/07 10:46:08;;;;;;;13.15;7.30;;;;;;;;;;5062637;28;20087;-55
2023/05/07 10:48:33;;;;;;;9.73;6.85;;;;;;;;;;5062326;28;20017;-59
2023/05/07 10:51:22;;;;;;;12.60;6.85;;;;;;;;;;5061556;28;20566;-56
2023/05/07 10:53:47;;;;;;;7.20;6.10;;;;;;;;;;4960206;28;20039;-57
2023/05/07 10:56:21;;;;;;;11.13;6.63;;;;;;;;;;4959983;28;20477;-59
2023/05/07 10:58:46;;;;;;;8.15;6.30;;;;;;;;;;4960030;28;20317;-54
2023/05/07 11:01:12;;;;;;;7.60;6.43;;;;;;;;;;4959773;28;20194;-57
2023/05/07 11:03:58;;;;;;;8.45;6.95;;;;;;;;;;4960094;28;20241;-58
2023/05/07 11:06:23;;;;;;;7.85;6.75;;;;;;;;;;4959458;28;20110;-59
2023/05/07 11:08:51;;;;;;;8.30;6.72;;;;;;;;;;4960024;28;20125;-59
2023/05/07 11:11:16;;;;;;;7.70;6.90;;;;;;;;;;4959370;28;20027;-60
2023/05/07 11:13:42;;;;;;;7.22;5.28;;;;;;;;;;4959758;28;20256;-59
2023/05/07 11:16:20;;;;;;;7.80;6.85;;;;;;;;;;4959629;28;20190;-57
2023/05/07 11:18:49;;;;;;;8.90;6.82;;;;;;;;;;4959251;28;20045;-57
2023/05/07 11:21:35;;;;;;;8.75;6.70;;;;;;;;;;4959596;28;20110;-56
2023/05/07 11:24:01;;;;;;;10.00;6.72;;;;;;;;;;4960707;28;20027;-57
2023/05/07 11:26:27;;;;;;;9.38;6.55;;;;;;;;;;4960245;28;20026;-59
2023/05/07 11:28:53;;;;;;;10.63;6.20;;;;;;;;;;4958978;28;20502;-59
2023/05/07 11:31:23;;;;;;;12.52;6.45;;;;;;;;;;5012536;28;20352;-55
2023/05/07 11:33:48;;;;;;;7.75;5.28;;;;;;;;;;5061220;28;20009;-58
2023/05/07 11:36:14;;;;;;;8.80;4.53;;;;;;;;;;5060770;28;20355;-57
2023/05/07 11:38:39;;;;;;;4.95;3.83;;;;;;;;;;5061438;28;20464;-56
2023/05/07 11:41:05;;;;;;;3.25;2.83;;;;;;;;;;5042772;28;20029;-59
2023/05/07 11:43:30;;;;;;;3.13;2.63;;;;;;;;;;5060965;28;20509;-57
2023/05/07 11:46:04;;;;;;;4.40;2.97;;;;;;;;;;5060212;28;20387;-58
2023/05/07 11:48:30;;;;;;;4.90;3.67;;;;;;;;;;5061177;28;20029;-55
2023/05/07 11:50:58;;;;;;;4.95;4.20;;;;;;;;;;5061003;28;20583;-58
2023/05/07 11:53:27;;;;;;;6.37;4.07;;;;;;;;;;5060095;28;20036;-58
2023/05/07 11:55:53;;;;;;;5.57;4.03;;;;;;;;;;5042580;28;20543;-55
2023/05/07 11:58:25;;;;;;;4.88;3.65;;;;;;;;;;5060377;28;20021;-58
2023/05/07 12:00:51;;;;;;;4.93;3.70;;;;;;;;;;5060632;28;20398;-58
2023/05/07 12:03:17;;;;;;;9.80;4.28;;;;;;;;;;5060596;28;20024;-60
2023/05/07 12:05:43;;;;;;;9.18;4.40;;;;;;;;;;5060353;28;20020;-57
2023/05/07 12:08:13;;;;;;;4.80;4.25;;;;;;;;;;5063578;28;20521;-55
2023/05/07 12:10:40;;;;;;;6.30;3.97;;;;;;;;;;5065390;28;20067;-58
2023/05/07 12:13:13;;;;;;;4.97;4.38;;;;;;;;;;5065983;28;20013;-57
2023/05/07 12:15:38;;;;;;;5.38;3.83;;;;;;;;;;5066303;28;20054;-58
2023/05/07 12:18:04;;;;;;;4.87;4.10;;;;;;;;;;5066177;28;20020;-58
2023/05/07 12:20:30;;;;;;;5.43;4.03;;;;;;;;;;5065740;28;20269;-57
2023/05/07 12:22:56;;;;;;;6.25;3.67;;;;;;;;;;5064972;28;20223;-58
2023/05/07 12:25:21;;;;;;;3.80;3.33;;;;;;;;;;5041502;28;20052;-56
2023/05/07 12:27:51;;;;;;;6.22;4.50;;;;;;;;;;5061403;28;20031;-58
2023/05/07 12:30:17;;;;;;;3.47;2.70;;;;;;;;;;5061388;28;20059;-55
2023/05/07 12:32:44;;;;;;;2.63;2.42;;;;;;;;;;5061052;28;20051;-57
2023/05/07 12:35:10;;;;;;;1.73;1.63;;;;;;;;;;5060051;28;20819;-56
2023/05/07 12:37:35;;;;;;;2.55;1.90;;;;;;;;;;5059868;28;20055;-56
2023/05/07 12:40:10;;;;;;;2.97;1.65;;;;;;;;;;5060555;28;20021;-57
2023/05/07 12:42:36;;;;;;;3.67;2.10;;;;;;;;;;5066487;28;20469;-58
2023/05/07 12:45:11;;;;;;;2.03;1.60;;;;;;;;;;5066524;28;20081;-58
2023/05/07 12:47:37;;;;;;;4.53;1.52;;;;;;;;;;5066896;28;20851;-58
2023/05/07 12:50:05;;;;;;;1.80;1.20;;;;;;;;;;5048506;28;20512;-57
2023/05/07 12:52:31;;;;;;;1.40;1.27;;;;;;;;;;5013709;28;20472;-56
2023/05/07 12:54:56;;;;;;;1.60;1.42;;;;;;;;;;5066594;28;20082;-58
2023/05/07 12:57:21;;;;;;;1.53;1.40;;;;;;;;;;5066108;28;20427;-56
2023/05/07 12:59:47;;;;;;;1.80;1.30;;;;;;;;;;5066758;28;20020;-56
2023/05/07 13:02:12;;;;;;;1.30;1.20;;;;;;;;;;5013413;28;20618;-56
2023/05/07 13:04:37;;;;;;;1.37;1.27;;;;;;;;;;5066627;28;20279;-59
2023/05/07 13:07:03;;;;;;;1.43;1.30;;;;;;;;;;5066348;28;20972;-56
2023/05/07 13:09:28;;;;;;;2.15;1.50;;;;;;;;;;5066694;28;20310;-58
2023/05/07 13:11:54;;;;;;;2.67;1.60;;;;;;;;;;5013809;28;20469;-58
2023/05/07 13:14:20;;;;;;;2.10;1.33;;;;;;;;;;5066296;28;20021;-56
2023/05/07 13:16:46;;;;;;;2.08;1.50;;;;;;;;;;5066617;28;20051;-56
2023/05/07 13:19:11;;;;;;;2.00;1.45;;;;;;;;;;5066110;28;20379;-59
2023/05/07 13:21:37;;;;;;;2.17;1.63;;;;;;;;;;5066667;28;20051;-57
2023/05/07 13:24:02;;;;;;;2.38;1.45;;;;;;;;;;5066202;28;20789;-55
2023/05/07 13:26:27;;;;;;;3.63;2.50;;;;;;;;;;5066853;28;20112;-59
2023/05/07 13:28:53;;;;;;;1.50;1.40;;;;;;;;;;5065803;28;20028;-59
2023/05/07 13:31:20;;;;;;;2.35;2.10;;;;;;;;;;5066403;28;20241;-56
2023/05/07 13:33:45;;;;;;;3.05;1.90;;;;;;;;;;5065994;28;20056;-57
2023/05/07 13:36:11;;;;;;;4.17;2.00;;;;;;;;;;5066149;28;20423;-55
2023/05/07 13:38:36;;;;;;;3.70;1.70;;;;;;;;;;5066332;28;20269;-58
2023/05/07 13:41:01;;;;;;;1.73;1.60;;;;;;;;;;5065758;28;20267;-60
2023/05/07 13:43:27;;;;;;;2.07;1.90;;;;;;;;;;5066151;28;20101;-58
2023/05/07 13:45:52;;;;;;;2.23;2.00;;;;;;;;;;5065880;28;20278;-57
2023/05/07 13:48:17;;;;;;;3.80;2.20;;;;;;;;;;5066285;28;20249;-58
2023/05/07 13:50:42;;;;;;;2.30;2.10;;;;;;;;;;5065872;28;20020;-58
2023/05/07 13:53:08;;;;;;;3.25;2.10;;;;;;;;;;5063221;28;20548;-58
2023/05/07 13:55:33;;;;;;;2.33;1.92;;;;;;;;;;5062766;28;20682;-58
2023/05/07 13:58:00;;;;;;;3.30;2.08;;;;;;;;;;5045021;28;20024;-59
2023/05/07 14:00:26;;;;;;;3.00;1.80;;;;;;;;;;5062227;28;20024;-58
2023/05/07 14:02:51;;;;;;;3.20;1.70;;;;;;;;;;5044576;28;20472;-57
2023/05/07 14:05:17;;;;;;;2.55;1.85;;;;;;;;;;5062708;28;20099;-57
2023/05/07 14:07:42;;;;;;;4.80;1.60;;;;;;;;;;5009877;28;20061;-56
2023/05/07 14:10:08;;;;;;;2.00;1.57;;;;;;;;;;5062704;28;20111;-58
2023/05/07 14:12:33;;;;;;;3.55;1.75;;;;;;;;;;5044093;28;20253;-58
2023/05/07 14:14:59;;;;;;;2.30;1.80;;;;;;;;;;5062451;28;20050;-57
2023/05/07 14:17:27;;;;;;;2.50;1.58;;;;;;;;;;5062318;28;20009;-57
2023/05/07 14:19:54;;;;;;;1.63;1.52;;;;;;;;;;5062419;28;20025;-59
2023/05/07 14:22:20;;;;;;;1.98;1.45;;;;;;;;;;5044507;28;20447;-59
2023/05/07 14:24:45;;;;;;;2.55;1.50;;;;;;;;;;5062195;28;20130;-59